Latest Weather Observations for Cape Leeuwin

IDW60801

Issued at 5:34 pm WST Friday 30 September 2016 (issued every 30 minutes, with the page automatically refreshed every 10 minutes)

About weather observations | Map of weather stations | Latest weather observations for WA | Other Formats
Station Details ID: 009518 Name: CAPE LEEUWIN Lat: -34.37 Lon: 115.14 Height: 13.0 m
Data from the previous 72 hours. | See also: Recent months at Cape Leeuwin
Date/Time
WST
Temp
°C
App
Temp
°C
Dew
Point
°C
Rel
Hum
%
Delta-T
°C
Wind Press
QNH
hPa
Press
MSL
hPa
Rain since
9am
mm
Dir  Spd
km/h
Gust
km/h
Spd
kts
Gust
kts
30/05:30pm 14.9 5.6 9.3 69 2.9 W 48 57 26 31 1002.9 1002.9 0.6
30/05:00pm 15.0 5.3 9.2 68 3.0 W 50 57 27 31 1003.1 1003.1 0.6
30/04:30pm 15.2 5.0 10.1 71 2.7 W 54 63 29 34 1002.7 1002.7 0.6
30/04:00pm 15.8 5.1 9.7 67 3.2 W 56 69 30 37 1002.4 1002.4 0.6
30/03:30pm 15.9 3.9 9.8 67 3.2 W 63 72 34 39 1002.4 1002.4 0.6
30/03:00pm 15.9 4.5 10.4 70 2.9 W 61 74 33 40 1002.2 1002.2 0.6
30/02:30pm 15.9 3.7 10.4 70 2.9 WNW 65 76 35 41 1002.0 1002.0 0.6
30/02:00pm 16.1 3.7 9.8 66 3.3 WNW 65 80 35 43 1002.0 1002.0 0.4
30/01:30pm 15.5 3.5 11.2 75 2.3 WNW 65 78 35 42 1001.9 1001.9 0.4
30/01:00pm 15.5 3.9 11.0 74 2.4 WNW 63 82 34 44 1002.3 1002.3 0.4
30/12:51pm 15.6 3.8 10.3 70 2.8 WNW 63 82 34 44 1002.1 1002.1 0.4
30/12:30pm 15.5 4.2 11.0 74 2.4 WNW 61 72 33 39 1002.6 1002.6 0.4
30/12:00pm 14.1 2.4 12.1 88 1.1 WNW 65 80 35 43 1002.6 1002.6 0.4
30/11:58am 15.2 3.9 10.9 75 2.3 WNW 61 80 33 43 1002.5 1002.5 0.4
30/11:30am 15.8 4.3 10.1 69 3.0 WNW 61 74 33 40 1002.8 1002.8 0.4
30/11:00am 15.6 4.5 10.1 70 2.9 WNW 59 69 32 37 1003.1 1003.1 0.4
30/10:30am 14.8 4.4 11.3 79 1.9 WNW 57 69 31 37 1003.5 1003.5 0.2
30/10:00am 14.9 3.5 10.6 75 2.3 WNW 61 70 33 38 1003.4 1003.4 0.2
30/09:30am 14.6 4.0 10.6 77 2.1 WNW 57 70 31 38 1003.3 1003.3 0.2
30/09:00am 14.4 4.6 10.2 76 2.2 WNW 52 59 28 32 1003.8 1003.8 1.6
30/08:30am 14.8 5.1 8.9 68 3.0 WNW 50 59 27 32 1003.7 1003.7 1.6
30/08:00am 14.7 4.0 9.5 71 2.7 WNW 56 65 30 35 1004.1 1004.1 1.6
30/07:30am 14.6 4.2 9.4 71 2.7 WNW 54 65 29 35 1004.1 1004.1 1.6
30/07:00am 14.4 3.6 9.1 70 2.7 WNW 56 67 30 36 1004.0 1004.0 1.6
30/06:30am 14.0 4.5 12.3 89 0.9 NW 54 65 29 35 1003.6 1003.6 1.6
30/06:00am 13.6 3.2 12.5 93 0.6 NW 59 74 32 40 1003.6 1003.6 0.6
30/05:30am 14.7 4.9 11.3 80 1.8 NW 54 65 29 35 1003.6 1003.6 0.0
30/05:12am 14.1 5.1 11.5 84 1.4 NW 50 69 27 37 1003.9 1003.9 0.0
30/05:00am 14.2 5.0 11.0 81 1.7 NW 50 59 27 32 1003.8 1003.8 0.0
30/04:30am 14.4 5.5 10.6 78 2.0 NW 48 61 26 33 1004.4 1004.4 0.0
30/04:00am 13.9 4.8 11.1 83 1.5 NW 50 63 27 34 1005.1 1005.1 0.0
30/03:30am 14.4 5.1 10.6 78 2.0 NW 50 61 27 33 1005.8 1005.8 0.0
30/03:00am 13.6 4.3 10.5 81 1.6 NW 50 61 27 33 1006.5 1006.5 0.0
30/02:30am 14.2 5.4 9.5 73 2.4 NW 46 54 25 29 1007.2 1007.2 0.0
30/02:00am 14.2 5.6 8.9 70 2.7 NW 44 54 24 29 1007.7 1007.7 0.0
30/01:30am 14.0 5.0 8.7 70 2.7 NW 46 54 25 29 1008.1 1008.1 0.0
30/01:00am 14.2 5.3 9.1 71 2.6 NW 46 54 25 29 1008.7 1008.7 0.0
30/12:30am 14.1 5.8 7.6 65 3.2 NW 41 50 22 27 1008.9 1008.9 0.0
30/12:00am 14.2 8.1 6.6 60 3.7 NNW 28 41 15 22 1009.3 1009.3 0.0
 
Date/Time
WST
Temp
°C
App
Temp
°C
Dew
Point
°C
Rel
Hum
%
Delta-T
°C
Wind Press
QNH
hPa
Press
MSL
hPa
Rain since
9am
mm
Dir  Spd
km/h
Gust
km/h
Spd
kts
Gust
kts
29/11:30pm 13.6 8.0 5.5 58 3.8 NNW 24 28 13 15 1010.0 1010.0 0.0
29/11:00pm 14.1 7.5 6.2 59 3.8 NW 30 37 16 20 1010.4 1010.4 0.0
29/10:30pm 14.3 7.5 5.1 54 4.3 WNW 30 41 16 22 1011.2 1011.2 0.0
29/10:00pm 14.3 7.4 6.4 59 3.8 WNW 32 39 17 21 1012.0 1012.0 0.0
29/09:30pm 14.3 5.9 5.4 55 4.2 NW 39 44 21 24 1012.6 1012.6 0.0
29/09:00pm 14.4 5.3 3.9 49 4.8 WNW 41 48 22 26 1012.8 1012.8 0.0
29/08:30pm 14.5 6.5 5.7 55 4.2 WNW 37 44 20 24 1013.1 1013.1 0.0
29/08:00pm 14.2 7.0 7.5 64 3.3 NW 35 43 19 23 1013.6 1013.6 0.0
29/07:30pm 13.9 8.5 8.1 68 2.9 WNW 26 32 14 17 1013.8 1013.8 0.0
29/07:00pm 13.6 8.9 9.1 74 2.3 WNW 24 28 13 15 1013.8 1013.8 0.0
29/06:30pm 12.1 8.8 9.5 84 1.3 N 17 20 9 11 1014.1 1014.1 0.0
29/06:00pm 11.7 8.0 9.3 85 1.2 N 19 24 10 13 1014.3 1014.3 0.0
29/05:30pm 11.6 6.9 9.4 86 1.1 N 24 32 13 17 1014.2 1014.2 0.0
29/05:00pm 12.5 8.7 9.1 80 1.7 N 19 26 10 14 1014.3 1014.3 0.0
29/04:30pm 13.5 9.9 8.3 71 2.6 NNW 17 22 9 12 1014.3 1014.3 0.0
29/04:00pm 13.8 10.8 7.7 66 3.0 NNW 13 19 7 10 1014.7 1014.7 0.0
29/03:30pm 13.9 9.7 7.6 66 3.1 NNW 19 24 10 13 1015.1 1015.1 0.0
29/03:00pm 14.2 9.7 7.0 62 3.5 NNW 20 24 11 13 1015.5 1015.5 0.0
29/02:30pm 14.3 9.4 7.1 62 3.5 NNW 22 28 12 15 1015.9 1015.9 0.0
29/02:00pm 14.6 8.9 6.5 58 3.9 NNW 26 35 14 19 1016.4 1016.4 0.0
29/01:30pm 14.6 9.2 8.2 65 3.2 NNW 26 33 14 18 1017.0 1017.0 0.0
29/01:00pm 14.8 8.9 7.5 61 3.6 NW 28 33 15 18 1017.5 1017.5 0.0
29/12:30pm 14.5 8.1 7.1 61 3.6 NW 30 35 16 19 1018.0 1018.0 0.0
29/12:00pm 14.2 7.8 6.8 61 3.6 NW 30 35 16 19 1018.9 1018.9 0.0
29/11:30am 14.1 8.4 6.6 60 3.6 NW 26 35 14 19 1019.5 1019.5 0.0
29/11:00am 13.9 10.3 4.8 54 4.2 NNW 13 24 7 13 1019.9 1019.9 0.0
29/10:30am 13.8 8.9 4.1 52 4.4 NNE 19 28 10 15 1020.0 1020.0 0.0
29/10:00am 12.4 6.4 3.1 53 4.1 NNE 24 32 13 17 1020.5 1020.5 0.0
29/09:30am 11.9 6.7 3.8 57 3.6 NNE 20 28 11 15 1021.0 1021.0 0.0
29/09:00am 10.5 4.8 3.1 60 3.2 NNE 22 28 12 15 1021.6 1021.6 0.2
29/08:30am 10.1 4.7 2.6 59 3.2 NNE 20 30 11 16 1021.8 1021.8 0.2
29/08:00am 9.2 3.3 2.0 60 3.0 NNE 22 32 12 17 1021.9 1021.9 0.2
29/07:30am 8.7 2.4 1.3 59 3.0 NNE 24 33 13 18 1022.0 1022.0 0.2
29/07:00am 8.2 1.9 1.6 63 2.7 NNE 24 35 13 19 1021.8 1021.8 0.2
29/06:30am 7.1 0.9 1.9 69 2.1 NNE 24 30 13 16 1021.8 1021.8 0.2
29/06:00am 6.6 0.4 1.9 72 1.9 NNE 24 33 13 18 1021.6 1021.6 0.2
29/05:30am 6.5 0.3 2.1 73 1.8 NNE 24 30 13 16 1021.8 1021.8 0.2
29/05:00am 6.9 0.7 2.3 72 1.9 NE 24 30 13 16 1021.8 1021.8 0.2
29/04:30am 6.8 1.1 2.7 75 1.7 NE 22 30 12 16 1021.5 1021.5 0.2
29/04:00am 7.1 1.4 2.8 74 1.8 NE 22 28 12 15 1021.5 1021.5 0.2
29/03:30am 7.0 1.7 2.9 75 1.7 NE 20 28 11 15 1021.7 1021.7 0.2
29/03:00am 7.2 2.1 3.1 75 1.7 NE 19 24 10 13 1021.8 1021.8 0.2
29/02:30am 7.7 2.4 3.2 73 1.9 NE 20 26 11 14 1021.8 1021.8 0.2
29/02:00am 8.2 3.2 3.5 72 2.0 NE 19 24 10 13 1022.1 1022.1 0.2
29/01:30am 9.0 4.8 3.7 69 2.3 NE 15 20 8 11 1022.6 1022.6 0.2
29/01:00am 9.7 5.5 3.7 66 2.6 NE 15 19 8 10 1023.0 1023.0 0.2
29/12:30am 10.0 5.8 3.8 65 2.7 NE 15 20 8 11 1023.2 1023.2 0.2
29/12:00am 10.2 6.0 3.8 64 2.8 NE 15 19 8 10 1023.6 1023.6 0.2
 
Date/Time
WST
Temp
°C
App
Temp
°C
Dew
Point
°C
Rel
Hum
%
Delta-T
°C
Wind Press
QNH
hPa
Press
MSL
hPa
Rain since
9am
mm
Dir  Spd
km/h
Gust
km/h
Spd
kts
Gust
kts
28/11:30pm 10.3 5.6 3.4 62 3.0 NE 17 20 9 11 1024.0 1024.0 0.2
28/11:00pm 10.7 7.5 3.3 60 3.2 NNE 9 19 5 10 1024.1 1024.1 0.2
28/10:30pm 11.6 7.0 3.7 58 3.5 E 17 20 9 11 1024.2 1024.2 0.2
28/10:00pm 11.5 6.9 3.8 59 3.4 ESE 17 24 9 13 1024.4 1024.4 0.2
28/09:30pm 11.3 7.0 3.3 58 3.5 E 15 20 8 11 1024.5 1024.5 0.2
28/09:00pm 11.4 7.1 3.4 58 3.5 SE 15 22 8 12 1024.6 1024.6 0.2
28/08:30pm 11.4 6.3 2.8 55 3.7 SE 19 26 10 14 1024.8 1024.8 0.2
28/08:00pm 11.5 6.9 3.5 58 3.5 SE 17 24 9 13 1024.5 1024.5 0.2
28/07:30pm 11.4 6.7 3.1 56 3.6 ESE 17 26 9 14 1024.5 1024.5 0.2
28/07:00pm 11.5 6.2 3.0 56 3.7 SE 20 30 11 16 1024.4 1024.4 0.2
28/06:30pm 11.6 6.6 3.4 57 3.6 SE 19 26 10 14 1024.2 1024.2 0.2
28/06:00pm 11.3 5.8 1.8 52 4.0 SSE 20 30 11 16 1024.1 1024.1 0.2
28/05:30pm 11.8 6.2 3.7 57 3.6 SE 22 30 12 16 1024.0 1024.0 0.2
28/05:00pm 11.9 6.2 2.7 53 4.0 SE 22 30 12 16 1024.0 1024.0 0.2
28/04:30pm 12.3 7.2 4.0 57 3.7 SSE 20 28 11 15 1023.9 1023.9 0.2
28/04:00pm 12.4 7.1 3.1 53 4.1 SSE 20 28 11 15 1023.8 1023.8 0.2
28/03:30pm 13.2 7.9 2.1 47 4.8 SSE 19 30 10 16 1024.0 1024.0 0.2
28/03:00pm 13.5 7.7 2.2 46 4.9 SSE 22 28 12 15 1024.1 1024.1 0.2
28/02:30pm 12.8 6.4 3.0 51 4.3 SSE 26 33 14 18 1024.3 1024.3 0.2
28/02:00pm 12.3 6.8 4.0 57 3.7 S 22 32 12 17 1024.3 1024.3 0.2
28/01:30pm 13.0 7.0 3.6 53 4.2 S 24 33 13 18 1024.3 1024.3 0.2
28/01:00pm 13.5 7.5 3.1 49 4.6 S 24 32 13 17 1024.4 1024.4 0.2
28/12:30pm 13.0 7.2 4.4 56 3.9 S 24 35 13 19 1024.6 1024.6 0.2
28/12:00pm 13.0 6.9 2.7 49 4.5 S 24 35 13 19 1024.5 1024.5 0.0
28/11:30am 13.4 6.6 3.3 50 4.5 S 28 43 15 23 1024.5 1024.5 0.0
28/11:00am 12.2 6.0 1.9 49 4.4 S 24 32 13 17 1024.5 1024.5 0.0
28/10:30am 13.8 6.9 2.7 47 4.9 S 28 39 15 21 1024.3 1024.3 0.0
28/10:00am 12.4 5.5 2.5 51 4.3 S 28 39 15 21 1024.3 1024.3 0.0
28/09:30am 11.5 3.8 3.3 57 3.6 S 33 44 18 24 1024.1 1024.1 0.0
28/09:19am 11.2 3.8 4.2 62 3.1 SSW 32 50 17 27 1024.0 1024.0 0.0
28/09:00am 12.1 4.3 1.7 49 4.4 SSW 32 44 17 24 1023.8 1023.8 7.8
28/08:30am 12.3 4.9 3.8 56 3.8 S 32 43 17 23 1023.4 1023.4 7.8
28/08:00am 11.1 3.4 2.5 55 3.7 SSW 32 43 17 23 1022.8 1022.8 7.8
28/07:30am 10.7 3.2 3.6 61 3.1 S 32 46 17 25 1022.3 1022.3 7.8
28/07:00am 10.5 2.0 3.1 60 3.2 S 37 46 20 25 1021.7 1021.7 7.8
28/06:42am 9.3 0.5 3.8 68 2.4 S 39 57 21 31 1021.6 1021.6 7.8
28/06:30am 9.6 1.7 4.6 71 2.2 S 35 46 19 25 1021.4 1021.4 7.8
28/06:00am 10.0 2.1 4.6 69 2.4 SSW 35 50 19 27 1021.0 1021.0 7.8
28/05:38am 9.1 0.2 5.1 76 1.8 SSW 41 59 22 32 1020.9 1020.9 7.8
28/05:30am 9.4 -0.8 5.4 76 1.8 SSW 48 59 26 32 1020.8 1020.8 7.8
28/05:00am 10.1 2.1 4.0 66 2.7 SSW 35 46 19 25 1020.2 1020.2 7.8
28/04:30am 9.4 0.5 4.9 73 2.0 SSW 41 56 22 30 1020.1 1020.1 7.8
28/04:00am 10.2 0.8 2.1 57 3.4 SSW 41 54 22 29 1019.3 1019.3 7.8
28/03:49am 10.3 1.0 2.8 59 3.2 SSW 41 61 22 33 1019.2 1019.2 7.8
28/03:30am 10.2 0.1 1.6 55 3.6 SSW 44 57 24 31 1019.1 1019.1 7.8
28/03:00am 10.2 0.7 1.6 55 3.6 SSW 41 52 22 28 1018.6 1018.6 7.8
28/02:36am 10.1 0.7 4.5 68 2.5 SSW 43 69 23 37 1018.6 1018.6 7.8
28/02:30am 10.2 0.2 1.3 54 3.7 SSW 43 56 23 30 1018.4 1018.4 7.8
28/02:00am 10.1 0.3 2.0 57 3.4 SSW 43 54 23 29 1018.4 1018.4 7.8
28/01:30am 10.1 0.2 2.6 59 3.2 SSW 44 61 24 33 1018.4 1018.4 7.8
28/01:20am 10.1 0.7 4.2 67 2.6 SSW 43 61 23 33 1018.4 1018.4 7.8
28/01:00am 9.8 -0.2 2.2 59 3.2 SSW 44 61 24 33 1018.2 1018.2 7.8
28/12:30am 10.4 0.2 0.9 52 3.9 SSW 44 63 24 34 1017.7 1017.7 7.8
28/12:22am 10.3 0.3 2.3 57 3.4 SSW 44 63 24 34 1017.6 1017.6 7.8
28/12:00am 10.4 0.1 2.4 57 3.4 SSW 46 59 25 32 1017.5 1017.5 7.8
 
Date/Time
WST
Temp
°C
App
Temp
°C
Dew
Point
°C
Rel
Hum
%
Delta-T
°C
Wind Press
QNH
hPa
Press
MSL
hPa
Rain since
9am
mm
Dir  Spd
km/h
Gust
km/h
Spd
kts
Gust
kts
27/11:30pm 10.4 -0.6 3.0 60 3.2 SSW 50 65 27 35 1017.2 1017.2 7.8
27/11:08pm 10.5 -0.6 4.7 67 2.6 SSW 52 70 28 38 1017.2 1017.2 7.8
27/11:00pm 10.2 -2.0 2.7 59 3.2 SW 56 70 30 38 1016.9 1016.9 7.8
27/10:30pm 10.4 -0.8 4.1 65 2.8 SSW 52 72 28 39 1016.6 1016.6 7.8
27/10:03pm 10.8 -1.0 2.7 57 3.5 SSW 54 72 29 39 1016.2 1016.2 7.8
27/10:00pm 10.7 -0.8 4.4 65 2.8 SW 54 69 29 37 1016.2 1016.2 7.8
27/09:44pm 10.5 -0.2 4.5 66 2.7 SW 50 69 27 37 1016.1 1016.1 7.8
27/09:30pm 10.4 -0.8 4.1 65 2.8 SW 52 69 28 37 1016.2 1016.2 7.8
27/09:02pm 9.8 -2.3 4.1 67 2.5 SSW 57 76 31 41 1016.0 1016.0 7.8
27/09:00pm 9.8 -2.6 4.6 70 2.3 SSW 59 76 32 41 1016.0 1016.0 7.8
27/08:42pm 10.8 -0.9 5.3 69 2.5 SW 56 74 30 40 1015.4 1015.4 7.8
27/08:30pm 10.6 -1.9 4.1 64 2.9 SW 59 76 32 41 1015.2 1015.2 7.8
27/08:03pm 10.6 -1.9 6.1 74 2.1 SW 61 82 33 44 1014.9 1014.9 7.6
27/08:00pm 10.7 -2.1 4.7 66 2.7 SW 61 78 33 42 1014.7 1014.7 7.6
27/07:30pm 10.1 -2.6 5.3 72 2.2 SW 61 83 33 45 1014.1 1014.1 7.6
27/07:00pm 11.5 -1.4 5.9 68 2.6 SW 63 82 34 44 1013.1 1013.1 7.6
27/06:33pm 11.6 -0.4 4.8 63 3.1 SW 57 76 31 41 1012.7 1012.7 7.6
27/06:30pm 11.7 -1.1 4.4 61 3.3 SW 61 76 33 41 1012.6 1012.6 7.6
27/06:00pm 11.3 -0.9 5.4 67 2.7 SW 59 72 32 39 1012.3 1012.3 7.6
27/05:45pm 10.9 -1.7 7.1 77 1.8 SW 63 82 34 44 1012.1 1012.1 7.6

Other Formats:

Comma delimited format used in spreadsheet applications
http://www.bom.gov.au/fwo/IDW60801/IDW60801.94601.axf

JavaScript Object Notation format (JSON) in row-major order
http://www.bom.gov.au/fwo/IDW60801/IDW60801.94601.json